TimeCST,TemperatureF,Dew PointF,Humidity,Sea Level PressureIn,VisibilityMPH,Wind Direction,Wind SpeedMPH,Gust SpeedMPH,PrecipitationIn,Events,Conditions,WindDirDegrees,DateUTC
12:53 AM,70.0,68.0,93,30.02,10.0,SSE,5.8,-,N/A,,Clear,160,2012-12-04 06:53:00
1:53 AM,70.0,68.0,93,30.01,10.0,SSE,9.2,-,N/A,,Clear,150,2012-12-04 07:53:00
2:53 AM,70.0,68.0,93,30.01,10.0,SSE,5.8,-,N/A,,Clear,150,2012-12-04 08:53:00
3:53 AM,69.1,66.9,93,30.00,10.0,SE,4.6,-,N/A,,Clear,140,2012-12-04 09:53:00
4:53 AM,68.0,68.0,100,30.01,9.0,Calm,Calm,-,N/A,,Clear,0,2012-12-04 10:53:00
5:53 AM,68.0,68.0,100,30.04,8.0,Calm,Calm,-,N/A,,Clear,0,2012-12-04 11:53:00
6:53 AM,64.9,64.9,100,30.06,4.0,Calm,Calm,-,N/A,,Clear,0,2012-12-04 12:53:00
6:57 AM,64.4,64.4,100,30.07,1.5,Calm,Calm,-,N/A,,Partly Cloudy,0,2012-12-04 12:57:00
7:01 AM,64.4,64.4,100,30.07,0.8,Calm,Calm,-,N/A,,Mist,0,2012-12-04 13:01:00
7:06 AM,64.4,64.4,100,30.07,0.2,Calm,Calm,-,N/A,Fog,Fog,0,2012-12-04 13:06:00
7:24 AM,66.2,66.2,100,30.08,1.0,East,4.6,-,N/A,,Mist,80,2012-12-04 13:24:00
7:35 AM,66.2,66.2,100,30.08,1.5,ESE,3.5,-,N/A,,Scattered Clouds,110,2012-12-04 13:35:00
7:40 AM,68.0,66.2,94,30.08,3.0,SE,3.5,-,N/A,,Partly Cloudy,130,2012-12-04 13:40:00
7:53 AM,68.0,68.0,100,30.08,4.0,Calm,Calm,-,N/A,,Partly Cloudy,0,2012-12-04 13:53:00
8:53 AM,75.0,72.0,90,30.08,10.0,South,6.9,-,N/A,,Clear,180,2012-12-04 14:53:00
9:53 AM,80.1,70.0,71,30.11,10.0,South,11.5,-,N/A,,Partly Cloudy,180,2012-12-04 15:53:00
10:53 AM,82.9,68.0,60,30.10,10.0,South,13.8,-,N/A,,Partly Cloudy,170,2012-12-04 16:53:00
11:53 AM,84.9,66.0,53,30.08,10.0,SSW,11.5,-,N/A,,Scattered Clouds,210,2012-12-04 17:53:00
12:53 PM,84.0,64.9,53,30.06,10.0,South,10.4,18.4,N/A,,Partly Cloudy,190,2012-12-04 18:53:00
1:53 PM,87.1,64.0,46,30.04,10.0,SW,9.2,-,N/A,,Partly Cloudy,220,2012-12-04 19:53:00
2:53 PM,86.0,63.0,46,30.02,10.0,SSW,8.1,-,N/A,,Clear,200,2012-12-04 20:53:00
3:53 PM,82.9,70.0,65,30.02,10.0,SE,16.1,-,N/A,,Scattered Clouds,140,2012-12-04 21:53:00
4:53 PM,80.1,69.1,69,30.04,10.0,SE,13.8,-,N/A,,Clear,140,2012-12-04 22:53:00
5:53 PM,77.0,69.1,76,30.06,10.0,SSE,11.5,-,N/A,,Clear,150,2012-12-04 23:53:00
6:53 PM,75.0,70.0,84,30.07,10.0,SE,9.2,-,N/A,,Clear,140,2012-12-05 00:53:00
7:53 PM,73.9,70.0,87,30.10,10.0,SSE,8.1,-,N/A,,Clear,160,2012-12-05 01:53:00
8:53 PM,73.0,70.0,90,30.12,10.0,SE,3.5,-,N/A,,Mostly Cloudy,140,2012-12-05 02:53:00
9:53 PM,72.0,69.1,91,30.11,10.0,South,5.8,-,N/A,,Scattered Clouds,180,2012-12-05 03:53:00
10:53 PM,71.1,69.1,93,30.10,10.0,SSE,3.5,-,N/A,,Scattered Clouds,160,2012-12-05 04:53:00
11:53 PM,70.0,68.0,93,30.10,10.0,South,5.8,-,N/A,,Clear,170,2012-12-05 05:53:00